Tompkins, Illinois
Current Conditions -  °F | °C
As of 10:55 PM on Friday 28 Nov 2014 (Local Time) from KGBG Reporting Station
Clear Clear  
Wind Chill: 28°   Ceiling: Unl
Heat Index: 35°   Visibility: 10mi
Dew Point: 32°   Wind: 8mph
Humidity: 90%   Direction: 130°SE
Pressure: 29.8"   Gusts: NA
Location:  40.8511°N, 90.7293°W
Report Text: KGBG 290455Z AUTO 13007KT 10SM CLR 02/00 A2980 RMK AO2 T00150000
Loading
Personal Weather Stations






























Interactive Weather Map New forecast layout! Learn more

10-Day Weather Forecast

Advertisements
Track Severe Weather on mobile